sensor_id;sensor_type;location;lat;lon;timestamp;P1;durP1;ratioP1;P2;durP2;ratioP2
34872;SDS011;21084;51.098;14.506;2022-08-18T00:00:33;18.02;;;13.00;;
34872;SDS011;21084;51.098;14.506;2022-08-18T00:02:36;17.23;;;13.25;;
34872;SDS011;21084;51.098;14.506;2022-08-18T00:04:45;16.33;;;12.95;;
34872;SDS011;21084;51.098;14.506;2022-08-18T00:06:50;18.48;;;13.75;;
34872;SDS011;21084;51.098;14.506;2022-08-18T00:08:54;18.02;;;12.63;;
34872;SDS011;21084;51.098;14.506;2022-08-18T00:10:57;20.15;;;12.95;;
34872;SDS011;21084;51.098;14.506;2022-08-18T00:13:03;18.25;;;13.13;;
34872;SDS011;21084;51.098;14.506;2022-08-18T00:15:07;18.00;;;13.38;;
34872;SDS011;21084;51.098;14.506;2022-08-18T00:17:13;15.57;;;13.18;;
34872;SDS011;21084;51.098;14.506;2022-08-18T00:19:17;19.58;;;13.38;;
34872;SDS011;21084;51.098;14.506;2022-08-18T00:21:21;19.27;;;13.05;;
34872;SDS011;21084;51.098;14.506;2022-08-18T00:23:24;18.50;;;12.88;;
34872;SDS011;21084;51.098;14.506;2022-08-18T00:25:27;16.48;;;12.45;;
34872;SDS011;21084;51.098;14.506;2022-08-18T00:27:30;18.73;;;13.15;;
34872;SDS011;21084;51.098;14.506;2022-08-18T00:29:36;16.92;;;12.93;;
34872;SDS011;21084;51.098;14.506;2022-08-18T00:31:39;17.75;;;12.30;;
34872;SDS011;21084;51.098;14.506;2022-08-18T00:33:42;16.20;;;13.65;;
34872;SDS011;21084;51.098;14.506;2022-08-18T00:35:45;14.32;;;12.07;;
34872;SDS011;21084;51.098;14.506;2022-08-18T00:37:48;18.08;;;13.43;;
34872;SDS011;21084;51.098;14.506;2022-08-18T00:39:52;15.93;;;12.40;;
34872;SDS011;21084;51.098;14.506;2022-08-18T00:41:55;15.48;;;12.98;;
34872;SDS011;21084;51.098;14.506;2022-08-18T00:43:58;18.05;;;12.93;;
34872;SDS011;21084;51.098;14.506;2022-08-18T00:46:04;16.80;;;12.82;;
34872;SDS011;21084;51.098;14.506;2022-08-18T00:48:09;15.30;;;12.45;;
34872;SDS011;21084;51.098;14.506;2022-08-18T00:50:14;15.57;;;12.07;;
34872;SDS011;21084;51.098;14.506;2022-08-18T00:52:19;22.98;;;12.38;;
34872;SDS011;21084;51.098;14.506;2022-08-18T00:54:24;16.50;;;12.85;;
34872;SDS011;21084;51.098;14.506;2022-08-18T00:56:33;19.75;;;12.77;;
34872;SDS011;21084;51.098;14.506;2022-08-18T00:58:40;15.57;;;11.70;;
34872;SDS011;21084;51.098;14.506;2022-08-18T01:00:47;15.95;;;13.07;;
34872;SDS011;21084;51.098;14.506;2022-08-18T01:02:55;17.67;;;11.90;;
34872;SDS011;21084;51.098;14.506;2022-08-18T01:05:04;17.23;;;12.75;;
34872;SDS011;21084;51.098;14.506;2022-08-18T01:07:13;15.13;;;12.63;;
34872;SDS011;21084;51.098;14.506;2022-08-18T01:09:19;16.73;;;13.30;;
34872;SDS011;21084;51.098;14.506;2022-08-18T01:11:22;16.88;;;12.68;;
34872;SDS011;21084;51.098;14.506;2022-08-18T01:13:26;18.08;;;11.85;;
34872;SDS011;21084;51.098;14.506;2022-08-18T01:15:31;17.13;;;12.93;;
34872;SDS011;21084;51.098;14.506;2022-08-18T01:17:34;29.77;;;12.70;;
34872;SDS011;21084;51.098;14.506;2022-08-18T01:19:40;15.20;;;11.70;;
34872;SDS011;21084;51.098;14.506;2022-08-18T01:21:45;14.00;;;11.70;;
34872;SDS011;21084;51.098;14.506;2022-08-18T01:23:54;16.05;;;12.13;;
34872;SDS011;21084;51.098;14.506;2022-08-18T01:25:58;15.02;;;11.70;;
34872;SDS011;21084;51.098;14.506;2022-08-18T01:28:02;16.15;;;12.27;;
34872;SDS011;21084;51.098;14.506;2022-08-18T01:30:06;16.60;;;12.27;;
34872;SDS011;21084;51.098;14.506;2022-08-18T01:32:13;18.05;;;11.95;;
34872;SDS011;21084;51.098;14.506;2022-08-18T01:34:17;17.27;;;12.50;;
34872;SDS011;21084;51.098;14.506;2022-08-18T01:36:20;17.02;;;11.85;;
34872;SDS011;21084;51.098;14.506;2022-08-18T01:38:23;14.80;;;12.13;;
34872;SDS011;21084;51.098;14.506;2022-08-18T01:40:29;17.27;;;12.38;;
34872;SDS011;21084;51.098;14.506;2022-08-18T01:42:52;15.02;;;12.10;;
34872;SDS011;21084;51.098;14.506;2022-08-18T01:44:55;18.33;;;13.18;;
34872;SDS011;21084;51.098;14.506;2022-08-18T01:46:58;14.50;;;11.80;;
34872;SDS011;21084;51.098;14.506;2022-08-18T01:49:02;16.23;;;11.93;;
34872;SDS011;21084;51.098;14.506;2022-08-18T01:51:06;15.32;;;12.18;;
34872;SDS011;21084;51.098;14.506;2022-08-18T01:53:11;19.77;;;12.98;;
34872;SDS011;21084;51.098;14.506;2022-08-18T01:55:14;18.33;;;12.75;;
34872;SDS011;21084;51.098;14.506;2022-08-18T01:57:20;21.95;;;12.20;;
34872;SDS011;21084;51.098;14.506;2022-08-18T01:59:23;16.75;;;12.15;;
34872;SDS011;21084;51.098;14.506;2022-08-18T02:01:26;18.55;;;12.10;;
34872;SDS011;21084;51.098;14.506;2022-08-18T02:03:39;14.80;;;12.23;;
34872;SDS011;21084;51.098;14.506;2022-08-18T02:05:46;16.45;;;11.95;;
34872;SDS011;21084;51.098;14.506;2022-08-18T02:07:52;15.15;;;12.27;;
34872;SDS011;21084;51.098;14.506;2022-08-18T02:09:56;15.98;;;12.07;;
34872;SDS011;21084;51.098;14.506;2022-08-18T02:12:00;14.30;;;11.98;;
34872;SDS011;21084;51.098;14.506;2022-08-18T02:14:06;17.08;;;11.63;;
34872;SDS011;21084;51.098;14.506;2022-08-18T02:16:09;18.65;;;12.82;;
34872;SDS011;21084;51.098;14.506;2022-08-18T02:18:13;14.27;;;12.00;;
34872;SDS011;21084;51.098;14.506;2022-08-18T02:20:37;19.65;;;12.70;;
34872;SDS011;21084;51.098;14.506;2022-08-18T02:22:42;20.45;;;12.38;;
34872;SDS011;21084;51.098;14.506;2022-08-18T02:24:46;16.33;;;12.50;;
34872;SDS011;21084;51.098;14.506;2022-08-18T02:26:49;17.48;;;12.68;;
34872;SDS011;21084;51.098;14.506;2022-08-18T02:28:52;14.73;;;12.50;;
34872;SDS011;21084;51.098;14.506;2022-08-18T02:31:00;16.98;;;12.50;;
34872;SDS011;21084;51.098;14.506;2022-08-18T02:33:07;15.73;;;12.43;;
34872;SDS011;21084;51.098;14.506;2022-08-18T02:35:15;17.27;;;12.98;;
34872;SDS011;21084;51.098;14.506;2022-08-18T02:37:18;16.42;;;12.20;;
34872;SDS011;21084;51.098;14.506;2022-08-18T02:39:21;14.50;;;11.63;;
34872;SDS011;21084;51.098;14.506;2022-08-18T02:41:24;14.85;;;12.25;;
34872;SDS011;21084;51.098;14.506;2022-08-18T02:43:31;15.90;;;11.60;;
34872;SDS011;21084;51.098;14.506;2022-08-18T02:45:39;15.55;;;12.23;;
34872;SDS011;21084;51.098;14.506;2022-08-18T02:47:44;16.88;;;12.35;;
34872;SDS011;21084;51.098;14.506;2022-08-18T02:49:53;16.63;;;12.48;;
34872;SDS011;21084;51.098;14.506;2022-08-18T02:51:56;15.63;;;11.90;;
34872;SDS011;21084;51.098;14.506;2022-08-18T02:53:59;15.13;;;11.35;;
34872;SDS011;21084;51.098;14.506;2022-08-18T02:56:07;16.73;;;11.65;;
34872;SDS011;21084;51.098;14.506;2022-08-18T02:58:11;15.50;;;12.00;;
34872;SDS011;21084;51.098;14.506;2022-08-18T03:00:15;18.77;;;11.82;;
34872;SDS011;21084;51.098;14.506;2022-08-18T03:02:20;14.65;;;11.40;;
34872;SDS011;21084;51.098;14.506;2022-08-18T03:04:27;16.13;;;11.75;;
34872;SDS011;21084;51.098;14.506;2022-08-18T03:06:43;17.08;;;11.02;;
34872;SDS011;21084;51.098;14.506;2022-08-18T03:08:46;15.45;;;11.30;;
34872;SDS011;21084;51.098;14.506;2022-08-18T03:10:50;19.77;;;11.95;;
34872;SDS011;21084;51.098;14.506;2022-08-18T03:12:53;19.00;;;11.43;;
34872;SDS011;21084;51.098;14.506;2022-08-18T03:14:57;14.70;;;12.23;;
34872;SDS011;21084;51.098;14.506;2022-08-18T03:17:02;16.25;;;11.65;;
34872;SDS011;21084;51.098;14.506;2022-08-18T03:19:06;15.98;;;12.68;;
34872;SDS011;21084;51.098;14.506;2022-08-18T03:21:13;15.05;;;12.70;;
34872;SDS011;21084;51.098;14.506;2022-08-18T03:23:18;18.07;;;12.63;;
34872;SDS011;21084;51.098;14.506;2022-08-18T03:25:30;16.02;;;11.90;;
34872;SDS011;21084;51.098;14.506;2022-08-18T03:27:33;15.93;;;12.77;;
34872;SDS011;21084;51.098;14.506;2022-08-18T03:29:37;14.50;;;11.85;;
34872;SDS011;21084;51.098;14.506;2022-08-18T03:31:40;16.30;;;12.38;;
34872;SDS011;21084;51.098;14.506;2022-08-18T03:33:45;16.65;;;12.65;;
34872;SDS011;21084;51.098;14.506;2022-08-18T03:35:49;17.33;;;12.30;;
34872;SDS011;21084;51.098;14.506;2022-08-18T03:37:55;15.27;;;12.48;;
34872;SDS011;21084;51.098;14.506;2022-08-18T03:40:00;16.00;;;12.88;;
34872;SDS011;21084;51.098;14.506;2022-08-18T03:42:03;17.88;;;12.52;;
34872;SDS011;21084;51.098;14.506;2022-08-18T03:44:06;16.15;;;12.10;;
34872;SDS011;21084;51.098;14.506;2022-08-18T03:46:10;15.00;;;12.60;;
34872;SDS011;21084;51.098;14.506;2022-08-18T03:48:15;18.33;;;12.65;;
34872;SDS011;21084;51.098;14.506;2022-08-18T03:50:18;17.15;;;11.77;;
34872;SDS011;21084;51.098;14.506;2022-08-18T03:52:21;17.40;;;13.05;;
34872;SDS011;21084;51.098;14.506;2022-08-18T03:54:27;17.77;;;12.35;;
34872;SDS011;21084;51.098;14.506;2022-08-18T03:56:31;14.95;;;11.90;;
34872;SDS011;21084;51.098;14.506;2022-08-18T03:58:37;17.08;;;12.65;;
34872;SDS011;21084;51.098;14.506;2022-08-18T04:00:40;16.02;;;13.15;;
34872;SDS011;21084;51.098;14.506;2022-08-18T04:02:43;15.02;;;12.43;;
34872;SDS011;21084;51.098;14.506;2022-08-18T04:04:47;17.90;;;14.15;;
34872;SDS011;21084;51.098;14.506;2022-08-18T04:06:54;18.67;;;13.93;;
34872;SDS011;21084;51.098;14.506;2022-08-18T04:09:00;21.33;;;13.32;;
34872;SDS011;21084;51.098;14.506;2022-08-18T04:11:08;24.20;;;16.35;;
34872;SDS011;21084;51.098;14.506;2022-08-18T04:13:11;19.95;;;15.63;;
34872;SDS011;21084;51.098;14.506;2022-08-18T04:15:14;19.27;;;16.05;;
34872;SDS011;21084;51.098;14.506;2022-08-18T04:17:18;20.45;;;15.70;;
34872;SDS011;21084;51.098;14.506;2022-08-18T04:19:22;23.73;;;16.35;;
34872;SDS011;21084;51.098;14.506;2022-08-18T04:21:29;19.95;;;16.15;;
34872;SDS011;21084;51.098;14.506;2022-08-18T04:23:33;22.33;;;15.57;;
34872;SDS011;21084;51.098;14.506;2022-08-18T04:25:45;22.40;;;15.18;;
34872;SDS011;21084;51.098;14.506;2022-08-18T04:27:58;21.40;;;15.88;;
34872;SDS011;21084;51.098;14.506;2022-08-18T04:30:03;20.40;;;15.80;;
34872;SDS011;21084;51.098;14.506;2022-08-18T04:32:07;19.65;;;15.52;;
34872;SDS011;21084;51.098;14.506;2022-08-18T04:34:10;22.10;;;15.05;;
34872;SDS011;21084;51.098;14.506;2022-08-18T04:36:14;18.27;;;14.90;;
34872;SDS011;21084;51.098;14.506;2022-08-18T04:38:22;24.55;;;14.57;;
34872;SDS011;21084;51.098;14.506;2022-08-18T04:40:25;17.25;;;14.10;;
34872;SDS011;21084;51.098;14.506;2022-08-18T04:42:28;23.33;;;15.23;;
34872;SDS011;21084;51.098;14.506;2022-08-18T04:44:34;18.75;;;15.13;;
34872;SDS011;21084;51.098;14.506;2022-08-18T04:46:38;19.27;;;14.68;;
34872;SDS011;21084;51.098;14.506;2022-08-18T04:48:43;18.35;;;16.00;;
34872;SDS011;21084;51.098;14.506;2022-08-18T04:50:48;20.95;;;15.90;;
34872;SDS011;21084;51.098;14.506;2022-08-18T04:52:51;19.40;;;15.27;;
34872;SDS011;21084;51.098;14.506;2022-08-18T04:54:54;26.67;;;14.45;;
34872;SDS011;21084;51.098;14.506;2022-08-18T04:56:57;25.00;;;15.23;;
34872;SDS011;21084;51.098;14.506;2022-08-18T04:59:00;21.02;;;15.05;;
34872;SDS011;21084;51.098;14.506;2022-08-18T05:01:08;21.02;;;14.85;;
34872;SDS011;21084;51.098;14.506;2022-08-18T05:03:13;19.48;;;15.43;;
34872;SDS011;21084;51.098;14.506;2022-08-18T05:05:16;21.52;;;15.30;;
34872;SDS011;21084;51.098;14.506;2022-08-18T05:07:19;23.25;;;15.55;;
34872;SDS011;21084;51.098;14.506;2022-08-18T05:09:23;19.42;;;15.57;;
34872;SDS011;21084;51.098;14.506;2022-08-18T05:11:30;21.20;;;15.70;;
34872;SDS011;21084;51.098;14.506;2022-08-18T05:13:33;23.67;;;16.60;;
34872;SDS011;21084;51.098;14.506;2022-08-18T05:15:36;25.42;;;15.98;;
34872;SDS011;21084;51.098;14.506;2022-08-18T05:18:02;22.95;;;15.75;;
34872;SDS011;21084;51.098;14.506;2022-08-18T05:20:08;20.38;;;15.32;;
34872;SDS011;21084;51.098;14.506;2022-08-18T05:22:12;19.13;;;15.30;;
34872;SDS011;21084;51.098;14.506;2022-08-18T05:24:17;26.25;;;15.02;;
34872;SDS011;21084;51.098;14.506;2022-08-18T05:26:20;21.70;;;15.35;;
34872;SDS011;21084;51.098;14.506;2022-08-18T05:28:24;23.25;;;15.63;;
34872;SDS011;21084;51.098;14.506;2022-08-18T05:30:27;25.30;;;16.13;;
34872;SDS011;21084;51.098;14.506;2022-08-18T05:32:31;27.98;;;15.73;;
34872;SDS011;21084;51.098;14.506;2022-08-18T05:34:53;21.30;;;14.00;;
34872;SDS011;21084;51.098;14.506;2022-08-18T05:36:59;20.08;;;14.10;;
34872;SDS011;21084;51.098;14.506;2022-08-18T05:39:11;21.15;;;14.20;;
34872;SDS011;21084;51.098;14.506;2022-08-18T05:41:22;20.83;;;13.90;;
34872;SDS011;21084;51.098;14.506;2022-08-18T05:43:27;17.60;;;13.43;;
34872;SDS011;21084;51.098;14.506;2022-08-18T05:45:30;21.13;;;13.73;;
34872;SDS011;21084;51.098;14.506;2022-08-18T05:47:33;27.35;;;13.60;;
34872;SDS011;21084;51.098;14.506;2022-08-18T05:49:36;26.80;;;13.45;;
34872;SDS011;21084;51.098;14.506;2022-08-18T05:51:44;17.92;;;12.88;;
34872;SDS011;21084;51.098;14.506;2022-08-18T05:53:48;21.27;;;14.20;;
34872;SDS011;21084;51.098;14.506;2022-08-18T05:55:54;25.58;;;13.30;;
34872;SDS011;21084;51.098;14.506;2022-08-18T05:58:04;17.88;;;12.60;;
34872;SDS011;21084;51.098;14.506;2022-08-18T06:00:12;19.42;;;13.25;;
34872;SDS011;21084;51.098;14.506;2022-08-18T06:02:17;18.58;;;12.32;;
34872;SDS011;21084;51.098;14.506;2022-08-18T06:04:32;16.70;;;12.38;;
34872;SDS011;21084;51.098;14.506;2022-08-18T06:06:45;17.08;;;12.18;;
34872;SDS011;21084;51.098;14.506;2022-08-18T06:08:51;17.08;;;11.55;;
34872;SDS011;21084;51.098;14.506;2022-08-18T06:10:58;16.50;;;11.20;;
34872;SDS011;21084;51.098;14.506;2022-08-18T06:13:01;15.45;;;10.75;;
34872;SDS011;21084;51.098;14.506;2022-08-18T06:15:07;13.68;;;10.52;;
34872;SDS011;21084;51.098;14.506;2022-08-18T06:17:18;14.68;;;9.75;;
34872;SDS011;21084;51.098;14.506;2022-08-18T06:19:42;11.65;;;10.27;;
34872;SDS011;21084;51.098;14.506;2022-08-18T06:21:55;11.95;;;9.85;;
34872;SDS011;21084;51.098;14.506;2022-08-18T06:24:06;12.27;;;10.15;;
34872;SDS011;21084;51.098;14.506;2022-08-18T06:26:16;13.95;;;10.02;;
34872;SDS011;21084;51.098;14.506;2022-08-18T06:28:23;15.73;;;10.23;;
34872;SDS011;21084;51.098;14.506;2022-08-18T06:30:28;12.60;;;9.75;;
34872;SDS011;21084;51.098;14.506;2022-08-18T06:33:00;11.77;;;9.27;;
34872;SDS011;21084;51.098;14.506;2022-08-18T06:35:11;10.52;;;9.00;;
34872;SDS011;21084;51.098;14.506;2022-08-18T06:37:22;11.15;;;9.55;;
34872;SDS011;21084;51.098;14.506;2022-08-18T06:39:34;14.88;;;9.38;;
34872;SDS011;21084;51.098;14.506;2022-08-18T06:41:44;10.68;;;9.57;;
34872;SDS011;21084;51.098;14.506;2022-08-18T06:43:55;14.00;;;9.50;;
34872;SDS011;21084;51.098;14.506;2022-08-18T06:46:01;11.57;;;8.95;;
34872;SDS011;21084;51.098;14.506;2022-08-18T06:48:09;9.85;;;8.85;;
34872;SDS011;21084;51.098;14.506;2022-08-18T06:50:20;12.25;;;8.52;;
34872;SDS011;21084;51.098;14.506;2022-08-18T06:52:31;10.38;;;8.52;;
34872;SDS011;21084;51.098;14.506;2022-08-18T06:54:35;13.45;;;8.77;;
34872;SDS011;21084;51.098;14.506;2022-08-18T06:56:52;13.13;;;8.02;;
34872;SDS011;21084;51.098;14.506;2022-08-18T06:59:00;11.10;;;7.82;;
34872;SDS011;21084;51.098;14.506;2022-08-18T07:01:23;10.68;;;7.75;;
34872;SDS011;21084;51.098;14.506;2022-08-18T07:03:40;13.02;;;7.65;;
34872;SDS011;21084;51.098;14.506;2022-08-18T07:05:55;14.55;;;8.32;;
34872;SDS011;21084;51.098;14.506;2022-08-18T07:08:07;10.25;;;7.88;;
34872;SDS011;21084;51.098;14.506;2022-08-18T07:10:27;17.17;;;8.35;;
34872;SDS011;21084;51.098;14.506;2022-08-18T07:12:33;14.45;;;7.68;;
34872;SDS011;21084;51.098;14.506;2022-08-18T07:14:43;8.70;;;7.80;;
34872;SDS011;21084;51.098;14.506;2022-08-18T07:16:48;15.25;;;8.10;;
34872;SDS011;21084;51.098;14.506;2022-08-18T07:19:05;13.38;;;7.55;;
34872;SDS011;21084;51.098;14.506;2022-08-18T07:21:09;8.65;;;7.07;;
34872;SDS011;21084;51.098;14.506;2022-08-18T07:23:30;13.30;;;6.90;;
34872;SDS011;21084;51.098;14.506;2022-08-18T07:25:37;12.57;;;7.82;;
34872;SDS011;21084;51.098;14.506;2022-08-18T07:29:58;10.07;;;7.15;;
34872;SDS011;21084;51.098;14.506;2022-08-18T07:32:03;7.90;;;7.10;;
34872;SDS011;21084;51.098;14.506;2022-08-18T07:34:23;14.20;;;7.25;;
34872;SDS011;21084;51.098;14.506;2022-08-18T07:36:31;7.95;;;6.75;;
34872;SDS011;21084;51.098;14.506;2022-08-18T07:38:40;9.88;;;6.80;;
34872;SDS011;21084;51.098;14.506;2022-08-18T07:40:49;9.95;;;6.80;;
34872;SDS011;21084;51.098;14.506;2022-08-18T07:42:58;7.80;;;6.50;;
34872;SDS011;21084;51.098;14.506;2022-08-18T07:45:05;9.07;;;6.90;;
34872;SDS011;21084;51.098;14.506;2022-08-18T07:47:19;7.95;;;6.65;;
34872;SDS011;21084;51.098;14.506;2022-08-18T07:49:27;8.65;;;6.82;;
34872;SDS011;21084;51.098;14.506;2022-08-18T07:51:41;12.70;;;7.35;;
34872;SDS011;21084;51.098;14.506;2022-08-18T07:53:53;12.05;;;7.72;;
34872;SDS011;21084;51.098;14.506;2022-08-18T07:56:01;9.07;;;6.80;;
34872;SDS011;21084;51.098;14.506;2022-08-18T07:58:12;8.10;;;7.05;;
34872;SDS011;21084;51.098;14.506;2022-08-18T08:00:24;11.90;;;6.85;;
34872;SDS011;21084;51.098;14.506;2022-08-18T08:05:04;9.20;;;6.38;;
34872;SDS011;21084;51.098;14.506;2022-08-18T08:07:14;9.57;;;7.00;;
34872;SDS011;21084;51.098;14.506;2022-08-18T08:09:31;9.45;;;6.40;;
34872;SDS011;21084;51.098;14.506;2022-08-18T08:11:54;8.35;;;6.05;;
34872;SDS011;21084;51.098;14.506;2022-08-18T08:14:05;9.85;;;6.65;;
34872;SDS011;21084;51.098;14.506;2022-08-18T08:16:18;8.40;;;6.70;;
34872;SDS011;21084;51.098;14.506;2022-08-18T08:18:31;14.40;;;6.43;;
34872;SDS011;21084;51.098;14.506;2022-08-18T08:20:39;7.53;;;6.38;;
34872;SDS011;21084;51.098;14.506;2022-08-18T08:22:52;8.13;;;6.18;;
34872;SDS011;21084;51.098;14.506;2022-08-18T08:25:07;8.30;;;6.75;;
34872;SDS011;21084;51.098;14.506;2022-08-18T08:27:41;10.85;;;6.28;;
34872;SDS011;21084;51.098;14.506;2022-08-18T08:29:57;9.07;;;6.68;;
34872;SDS011;21084;51.098;14.506;2022-08-18T08:32:07;7.05;;;6.35;;
34872;SDS011;21084;51.098;14.506;2022-08-18T08:34:14;9.48;;;6.72;;
34872;SDS011;21084;51.098;14.506;2022-08-18T08:36:22;8.80;;;6.90;;
34872;SDS011;21084;51.098;14.506;2022-08-18T08:38:32;10.70;;;6.53;;
34872;SDS011;21084;51.098;14.506;2022-08-18T08:40:50;9.10;;;6.18;;
34872;SDS011;21084;51.098;14.506;2022-08-18T08:42:58;9.73;;;6.70;;
34872;SDS011;21084;51.098;14.506;2022-08-18T08:45:07;10.18;;;6.68;;
34872;SDS011;21084;51.098;14.506;2022-08-18T08:47:16;9.88;;;6.88;;
34872;SDS011;21084;51.098;14.506;2022-08-18T08:49:26;11.13;;;6.65;;
34872;SDS011;21084;51.098;14.506;2022-08-18T08:51:35;8.93;;;6.90;;
34872;SDS011;21084;51.098;14.506;2022-08-18T08:53:44;11.50;;;6.22;;
34872;SDS011;21084;51.098;14.506;2022-08-18T08:55:54;9.02;;;6.40;;
34872;SDS011;21084;51.098;14.506;2022-08-18T08:58:09;7.65;;;6.03;;
34872;SDS011;21084;51.098;14.506;2022-08-18T09:00:20;7.72;;;5.75;;
34872;SDS011;21084;51.098;14.506;2022-08-18T09:02:27;6.25;;;5.65;;
34872;SDS011;21084;51.098;14.506;2022-08-18T09:04:54;8.02;;;4.80;;
34872;SDS011;21084;51.098;14.506;2022-08-18T09:07:15;8.95;;;5.53;;
34872;SDS011;21084;51.098;14.506;2022-08-18T09:09:49;8.40;;;5.60;;
34872;SDS011;21084;51.098;14.506;2022-08-18T09:12:14;8.05;;;5.80;;
34872;SDS011;21084;51.098;14.506;2022-08-18T09:17:22;9.60;;;6.15;;
34872;SDS011;21084;51.098;14.506;2022-08-18T09:19:49;6.13;;;5.53;;
34872;SDS011;21084;51.098;14.506;2022-08-18T09:22:03;11.40;;;5.47;;
34872;SDS011;21084;51.098;14.506;2022-08-18T09:24:17;9.50;;;5.63;;
34872;SDS011;21084;51.098;14.506;2022-08-18T09:26:26;8.55;;;5.53;;
34872;SDS011;21084;51.098;14.506;2022-08-18T09:28:52;8.10;;;5.45;;
34872;SDS011;21084;51.098;14.506;2022-08-18T09:33:23;7.50;;;6.50;;
34872;SDS011;21084;51.098;14.506;2022-08-18T09:35:44;16.05;;;5.55;;
34872;SDS011;21084;51.098;14.506;2022-08-18T09:38:05;5.43;;;4.93;;
34872;SDS011;21084;51.098;14.506;2022-08-18T09:40:13;6.78;;;5.43;;
34872;SDS011;21084;51.098;14.506;2022-08-18T09:42:26;8.32;;;5.55;;
34872;SDS011;21084;51.098;14.506;2022-08-18T09:45:03;7.07;;;5.20;;
34872;SDS011;21084;51.098;14.506;2022-08-18T09:47:12;9.00;;;6.13;;
34872;SDS011;21084;51.098;14.506;2022-08-18T09:49:50;6.53;;;5.72;;
34872;SDS011;21084;51.098;14.506;2022-08-18T09:51:55;6.70;;;6.10;;
34872;SDS011;21084;51.098;14.506;2022-08-18T09:58:57;6.45;;;5.45;;
34872;SDS011;21084;51.098;14.506;2022-08-18T10:03:37;6.18;;;5.57;;
34872;SDS011;21084;51.098;14.506;2022-08-18T10:05:40;9.23;;;6.20;;
34872;SDS011;21084;51.098;14.506;2022-08-18T10:08:25;10.85;;;5.90;;
34872;SDS011;21084;51.098;14.506;2022-08-18T10:10:46;11.25;;;5.95;;
34872;SDS011;21084;51.098;14.506;2022-08-18T10:13:12;9.20;;;5.65;;
34872;SDS011;21084;51.098;14.506;2022-08-18T10:15:47;7.03;;;5.32;;
34872;SDS011;21084;51.098;14.506;2022-08-18T10:18:19;6.00;;;5.40;;
34872;SDS011;21084;51.098;14.506;2022-08-18T10:20:52;5.88;;;5.28;;
34872;SDS011;21084;51.098;14.506;2022-08-18T10:23:00;10.98;;;6.07;;
34872;SDS011;21084;51.098;14.506;2022-08-18T10:25:08;10.35;;;5.00;;
34872;SDS011;21084;51.098;14.506;2022-08-18T10:27:35;6.45;;;5.72;;
34872;SDS011;21084;51.098;14.506;2022-08-18T10:29:51;9.18;;;6.18;;
34872;SDS011;21084;51.098;14.506;2022-08-18T10:34:35;11.35;;;6.72;;
34872;SDS011;21084;51.098;14.506;2022-08-18T10:36:47;7.68;;;6.88;;
34872;SDS011;21084;51.098;14.506;2022-08-18T10:38:52;7.93;;;7.13;;
34872;SDS011;21084;51.098;14.506;2022-08-18T10:40:58;8.55;;;6.70;;
34872;SDS011;21084;51.098;14.506;2022-08-18T10:43:15;10.20;;;7.03;;
34872;SDS011;21084;51.098;14.506;2022-08-18T10:45:42;7.05;;;6.35;;
34872;SDS011;21084;51.098;14.506;2022-08-18T10:48:08;10.40;;;6.70;;
34872;SDS011;21084;51.098;14.506;2022-08-18T10:50:35;7.78;;;7.00;;
34872;SDS011;21084;51.098;14.506;2022-08-18T10:52:57;11.00;;;7.47;;
34872;SDS011;21084;51.098;14.506;2022-08-18T10:55:41;12.75;;;7.13;;
34872;SDS011;21084;51.098;14.506;2022-08-18T10:58:04;9.32;;;7.00;;
34872;SDS011;21084;51.098;14.506;2022-08-18T11:00:20;13.70;;;7.07;;
34872;SDS011;21084;51.098;14.506;2022-08-18T11:02:32;8.00;;;6.45;;
34872;SDS011;21084;51.098;14.506;2022-08-18T11:05:03;11.13;;;6.68;;
34872;SDS011;21084;51.098;14.506;2022-08-18T11:07:09;8.32;;;7.10;;
34872;SDS011;21084;51.098;14.506;2022-08-18T11:09:17;13.07;;;7.57;;
34872;SDS011;21084;51.098;14.506;2022-08-18T11:11:30;11.27;;;6.97;;
34872;SDS011;21084;51.098;14.506;2022-08-18T11:13:46;9.88;;;6.95;;
34872;SDS011;21084;51.098;14.506;2022-08-18T11:15:59;13.48;;;7.10;;
34872;SDS011;21084;51.098;14.506;2022-08-18T11:18:19;9.02;;;7.95;;
34872;SDS011;21084;51.098;14.506;2022-08-18T11:20:32;13.98;;;7.53;;
34872;SDS011;21084;51.098;14.506;2022-08-18T11:22:37;16.15;;;8.00;;
34872;SDS011;21084;51.098;14.506;2022-08-18T11:24:44;8.35;;;7.15;;
34872;SDS011;21084;51.098;14.506;2022-08-18T11:26:48;9.18;;;7.45;;
34872;SDS011;21084;51.098;14.506;2022-08-18T11:29:17;11.23;;;7.40;;
34872;SDS011;21084;51.098;14.506;2022-08-18T11:31:25;11.40;;;6.80;;
34872;SDS011;21084;51.098;14.506;2022-08-18T11:33:31;10.85;;;7.60;;
34872;SDS011;21084;51.098;14.506;2022-08-18T11:35:43;8.15;;;7.28;;
34872;SDS011;21084;51.098;14.506;2022-08-18T11:37:50;11.80;;;7.05;;
34872;SDS011;21084;51.098;14.506;2022-08-18T11:39:59;8.90;;;7.18;;
34872;SDS011;21084;51.098;14.506;2022-08-18T11:42:10;8.63;;;7.22;;
34872;SDS011;21084;51.098;14.506;2022-08-18T11:44:28;7.88;;;6.80;;
34872;SDS011;21084;51.098;14.506;2022-08-18T11:46:35;11.50;;;7.10;;
34872;SDS011;21084;51.098;14.506;2022-08-18T11:48:42;9.65;;;6.95;;
34872;SDS011;21084;51.098;14.506;2022-08-18T11:51:09;11.93;;;6.97;;
34872;SDS011;21084;51.098;14.506;2022-08-18T11:53:33;9.45;;;6.88;;
34872;SDS011;21084;51.098;14.506;2022-08-18T11:55:42;7.40;;;6.70;;
34872;SDS011;21084;51.098;14.506;2022-08-18T11:57:54;11.02;;;6.47;;
34872;SDS011;21084;51.098;14.506;2022-08-18T12:02:59;8.35;;;6.32;;
34872;SDS011;21084;51.098;14.506;2022-08-18T12:05:03;7.57;;;6.78;;
34872;SDS011;21084;51.098;14.506;2022-08-18T12:07:27;9.45;;;7.03;;
34872;SDS011;21084;51.098;14.506;2022-08-18T12:09:32;8.52;;;6.22;;
34872;SDS011;21084;51.098;14.506;2022-08-18T12:12:02;14.95;;;6.95;;
34872;SDS011;21084;51.098;14.506;2022-08-18T12:14:08;10.85;;;6.70;;
34872;SDS011;21084;51.098;14.506;2022-08-18T12:16:39;7.72;;;6.82;;
34872;SDS011;21084;51.098;14.506;2022-08-18T12:18:47;13.32;;;7.50;;
34872;SDS011;21084;51.098;14.506;2022-08-18T12:20:55;9.05;;;6.75;;
34872;SDS011;21084;51.098;14.506;2022-08-18T12:22:58;13.70;;;7.70;;
34872;SDS011;21084;51.098;14.506;2022-08-18T12:25:04;14.32;;;7.18;;
34872;SDS011;21084;51.098;14.506;2022-08-18T12:27:18;12.10;;;6.90;;
34872;SDS011;21084;51.098;14.506;2022-08-18T12:29:24;16.05;;;7.15;;
34872;SDS011;21084;51.098;14.506;2022-08-18T12:31:45;12.77;;;7.05;;
34872;SDS011;21084;51.098;14.506;2022-08-18T12:33:50;9.05;;;7.20;;
34872;SDS011;21084;51.098;14.506;2022-08-18T12:36:02;10.05;;;7.45;;
34872;SDS011;21084;51.098;14.506;2022-08-18T12:38:07;11.15;;;7.70;;
34872;SDS011;21084;51.098;14.506;2022-08-18T12:40:15;14.18;;;7.07;;
34872;SDS011;21084;51.098;14.506;2022-08-18T12:42:21;10.38;;;7.70;;
34872;SDS011;21084;51.098;14.506;2022-08-18T12:44:24;10.30;;;7.50;;
34872;SDS011;21084;51.098;14.506;2022-08-18T12:46:28;10.63;;;7.22;;
34872;SDS011;21084;51.098;14.506;2022-08-18T12:48:32;9.35;;;7.22;;
34872;SDS011;21084;51.098;14.506;2022-08-18T12:50:38;8.98;;;7.13;;
34872;SDS011;21084;51.098;14.506;2022-08-18T12:52:55;19.95;;;8.20;;
34872;SDS011;21084;51.098;14.506;2022-08-18T12:54:58;13.10;;;7.40;;
34872;SDS011;21084;51.098;14.506;2022-08-18T12:57:02;13.20;;;7.10;;